Time;durP1;ratioP1;P1;durP2;ratioP2;P2;SDS_P1;SDS_P2;PMS_P1;PMS_P2;Temp;Humidity;BMP_temperature;BMP_pressure;BME280_temperature;BME280_humidity;BME280_pressure;Samples;Min_cycle;Max_cycle;Signal;HPM_P1;HPM_P2
2022/07/14 00:00:52;;;;;;;0.00;0.00;;;24.50;64.10;;;;;;3958638;29;20054;-70
2022/07/14 00:03:15;;;;;;;0.00;0.00;;;24.40;64.10;;;;;;3954646;29;20707;-70
2022/07/14 00:05:45;;;;;;;0.00;0.00;;;24.40;64.00;;;;;;3955776;29;20054;-70
2022/07/14 00:08:11;;;;;;;0.00;0.00;;;24.40;64.10;;;;;;3969513;29;20055;-69
2022/07/14 00:10:36;;;;;;;0.00;0.00;;;24.40;64.10;;;;;;3966831;29;20053;-71
2022/07/14 00:13:02;;;;;;;0.20;0.20;;;24.40;64.10;;;;;;3968290;29;20070;-69
2022/07/14 00:15:31;;;;;;;0.28;0.28;;;24.40;64.10;;;;;;3951471;29;20079;-69
2022/07/14 00:17:58;;;;;;;0.00;0.00;;;24.40;64.20;;;;;;3962433;29;20160;-69
2022/07/14 00:20:22;;;;;;;0.00;0.00;;;24.40;64.20;;;;;;3950648;29;20871;-69
2022/07/14 00:22:46;;;;;;;0.00;0.00;;;24.40;64.20;;;;;;3958281;29;20108;-69
2022/07/14 00:25:11;;;;;;;0.47;0.47;;;24.40;64.30;;;;;;3961705;29;20043;-70
2022/07/14 00:27:41;;;;;;;0.00;0.00;;;24.40;64.30;;;;;;3949301;29;20089;-68
2022/07/14 00:30:05;;;;;;;0.43;0.43;;;24.40;64.30;;;;;;3951731;29;20047;-69
2022/07/14 00:32:34;;;;;;;0.00;0.00;;;24.40;64.40;;;;;;3942591;29;20109;-69
2022/07/14 00:34:59;;;;;;;0.00;0.00;;;24.30;64.30;;;;;;3954685;29;20142;-69
2022/07/14 00:37:21;;;;;;;0.10;0.10;;;24.30;64.40;;;;;;3960336;29;20065;-69
2022/07/14 00:39:57;;;;;;;0.00;0.00;;;24.30;64.40;;;;;;3958934;29;20112;-69
2022/07/14 00:42:33;;;;;;;0.00;0.00;;;24.30;64.40;;;;;;3970291;29;20058;-69
2022/07/14 00:44:55;;;;;;;0.00;0.00;;;24.30;64.50;;;;;;3963017;29;20141;-69
2022/07/14 00:47:20;;;;;;;0.00;0.00;;;24.30;64.50;;;;;;3947360;29;20062;-69
2022/07/14 00:49:44;;;;;;;0.00;0.00;;;24.30;64.50;;;;;;3979774;29;20054;-69
2022/07/14 00:52:31;;;;;;;0.80;0.80;;;24.30;64.50;;;;;;3963896;29;20193;-69
2022/07/14 00:55:21;;;;;;;0.00;0.00;;;24.20;64.50;;;;;;3965256;29;20172;-69
2022/07/14 00:57:48;;;;;;;0.00;0.00;;;24.20;64.60;;;;;;3980189;29;20054;-69
2022/07/14 01:00:19;;;;;;;0.10;0.10;;;24.30;64.60;;;;;;3961460;29;20073;-69
2022/07/14 01:02:42;;;;;;;0.00;0.00;;;24.20;64.60;;;;;;3964209;29;20061;-69
2022/07/14 01:05:09;;;;;;;0.00;0.00;;;24.20;64.60;;;;;;3951273;29;20440;-70
2022/07/14 01:07:31;;;;;;;0.00;0.00;;;24.20;64.60;;;;;;3970939;29;20408;-69
2022/07/14 01:09:53;;;;;;;0.00;0.00;;;24.20;64.70;;;;;;3965392;29;20112;-69
2022/07/14 01:12:20;;;;;;;0.00;0.00;;;24.20;64.60;;;;;;3957079;29;20138;-69
2022/07/14 01:14:42;;;;;;;0.00;0.00;;;24.20;64.60;;;;;;3971441;29;20047;-69
2022/07/14 01:17:06;;;;;;;0.00;0.00;;;24.10;64.60;;;;;;3961977;29;20082;-69
2022/07/14 01:19:29;;;;;;;0.00;0.00;;;24.20;64.60;;;;;;3959824;29;20055;-70
2022/07/14 01:21:53;;;;;;;0.00;0.00;;;24.20;64.70;;;;;;3972253;29;20063;-68
2022/07/14 01:24:15;;;;;;;0.15;0.15;;;24.20;64.80;;;;;;3972607;29;20092;-70
2022/07/14 01:26:38;;;;;;;0.00;0.00;;;24.10;64.60;;;;;;3972508;29;20087;-69
2022/07/14 01:29:01;;;;;;;0.80;0.80;;;24.10;64.60;;;;;;3971033;29;20077;-68
2022/07/14 01:31:23;;;;;;;0.00;0.00;;;24.10;64.60;;;;;;3972191;29;20109;-69
2022/07/14 01:33:45;;;;;;;0.90;0.52;;;24.10;65.50;;;;;;3963178;29;20087;-69
2022/07/14 01:36:08;;;;;;;0.00;0.00;;;24.10;64.60;;;;;;3957524;29;20063;-69
2022/07/14 01:38:31;;;;;;;0.00;0.00;;;24.10;64.60;;;;;;3957709;29;20074;-69
2022/07/14 01:40:53;;;;;;;0.00;0.00;;;24.10;64.60;;;;;;3971975;29;20066;-69
2022/07/14 01:43:16;;;;;;;0.00;0.00;;;24.10;64.60;;;;;;3957343;29;20057;-69
2022/07/14 01:45:38;;;;;;;0.00;0.00;;;24.00;64.50;;;;;;3962228;29;20113;-69
2022/07/14 01:48:01;;;;;;;0.00;0.00;;;24.10;64.60;;;;;;3972345;29;20054;-69
2022/07/14 01:50:23;;;;;;;0.00;0.00;;;24.00;64.60;;;;;;3971669;29;20082;-69
2022/07/14 01:52:45;;;;;;;0.00;0.00;;;24.00;64.60;;;;;;3982404;29;20138;-69
2022/07/14 01:55:10;;;;;;;0.20;0.20;;;24.00;64.60;;;;;;3957338;29;20531;-69
2022/07/14 01:57:32;;;;;;;0.00;0.00;;;24.00;64.60;;;;;;3978202;29;20057;-68
2022/07/14 01:59:55;;;;;;;0.00;0.00;;;24.00;64.60;;;;;;3972145;29;20111;-69
2022/07/14 02:02:17;;;;;;;0.00;0.00;;;24.00;64.60;;;;;;3959368;29;20131;-70
2022/07/14 02:04:39;;;;;;;0.00;0.00;;;24.00;64.80;;;;;;3982299;29;20057;-70
2022/07/14 02:07:01;;;;;;;0.00;0.00;;;24.00;65.60;;;;;;3958750;29;20440;-69
2022/07/14 02:12:25;;;;;;;0.00;0.00;;;24.00;64.70;;;;;;3971942;29;20112;-69
2022/07/14 02:14:47;;;;;;;0.00;0.00;;;24.00;64.80;;;;;;3967507;29;20113;-69
2022/07/14 02:17:11;;;;;;;0.05;0.05;;;23.90;64.70;;;;;;3957383;29;20051;-69
2022/07/14 02:19:33;;;;;;;0.00;0.00;;;23.90;64.70;;;;;;3956932;29;20720;-69
2022/07/14 02:21:56;;;;;;;0.00;0.00;;;23.90;64.70;;;;;;3957180;29;20112;-69
2022/07/14 02:24:20;;;;;;;0.00;0.00;;;23.90;64.70;;;;;;3944514;29;20435;-69
2022/07/14 02:26:43;;;;;;;0.10;0.10;;;23.90;64.70;;;;;;3958806;29;20051;-69
2022/07/14 02:29:07;;;;;;;0.00;0.00;;;23.90;64.70;;;;;;3985448;29;20149;-68
2022/07/14 02:31:29;;;;;;;0.00;0.00;;;23.90;64.80;;;;;;3971976;29;20082;-69
2022/07/14 02:33:51;;;;;;;0.00;0.00;;;23.80;64.70;;;;;;3985503;29;20759;-69
2022/07/14 02:36:14;;;;;;;3.40;0.73;;;23.90;64.80;;;;;;3986080;29;20066;-69
2022/07/14 02:38:37;;;;;;;0.00;0.00;;;23.90;64.90;;;;;;3969421;29;20059;-69
2022/07/14 02:40:59;;;;;;;0.00;0.00;;;23.90;64.80;;;;;;3971203;29;20576;-69
2022/07/14 02:43:21;;;;;;;0.00;0.00;;;23.80;64.80;;;;;;3956718;29;20054;-69
2022/07/14 02:45:45;;;;;;;0.00;0.00;;;23.80;64.70;;;;;;3959087;29;20570;-69
2022/07/14 02:48:08;;;;;;;0.00;0.00;;;23.80;64.80;;;;;;3971583;29;20146;-69
2022/07/14 02:50:30;;;;;;;0.00;0.00;;;23.80;64.80;;;;;;3971642;29;20449;-69
2022/07/14 02:52:53;;;;;;;0.00;0.00;;;23.80;64.80;;;;;;3971290;29;20451;-69
2022/07/14 02:55:22;;;;;;;0.00;0.00;;;23.80;64.90;;;;;;3971690;29;20054;-69
2022/07/14 02:57:44;;;;;;;0.00;0.00;;;23.80;64.90;;;;;;3969824;29;20831;-68
2022/07/14 03:00:08;;;;;;;0.00;0.00;;;23.80;64.90;;;;;;3985308;29;20058;-69
2022/07/14 03:02:32;;;;;;;0.00;0.00;;;23.80;64.90;;;;;;3971265;29;20107;-69
2022/07/14 03:04:54;;;;;;;0.00;0.00;;;23.80;65.90;;;;;;3971419;29;20107;-69
2022/07/14 03:07:16;;;;;;;0.00;0.00;;;23.70;65.00;;;;;;3958235;29;20643;-69
2022/07/14 03:09:39;;;;;;;0.55;0.55;;;23.70;65.00;;;;;;3968694;29;20059;-69
2022/07/14 03:12:01;;;;;;;0.00;0.00;;;23.70;65.00;;;;;;3971118;29;20050;-69
2022/07/14 03:14:25;;;;;;;0.00;0.00;;;23.70;65.10;;;;;;3971361;29;20524;-69
2022/07/14 03:16:47;;;;;;;0.00;0.00;;;23.70;65.20;;;;;;3958249;29;20139;-69
2022/07/14 03:19:11;;;;;;;0.00;0.00;;;23.70;65.20;;;;;;3984709;29;20107;-69
2022/07/14 03:21:33;;;;;;;0.00;0.00;;;23.70;65.20;;;;;;3946160;29;20139;-69
2022/07/14 03:23:57;;;;;;;0.00;0.00;;;23.70;65.30;;;;;;3971900;29;20050;-69
2022/07/14 03:26:22;;;;;;;0.00;0.00;;;23.70;65.30;;;;;;3958695;29;20130;-70
2022/07/14 03:28:44;;;;;;;0.00;0.00;;;23.70;65.30;;;;;;3972571;29;20103;-69
2022/07/14 03:31:07;;;;;;;0.05;0.05;;;23.70;65.30;;;;;;3959698;29;20527;-69
2022/07/14 03:33:30;;;;;;;0.00;0.00;;;23.70;65.30;;;;;;3973870;29;20058;-69
2022/07/14 03:35:53;;;;;;;0.00;0.00;;;23.60;65.30;;;;;;3973160;29;20062;-69
2022/07/14 03:38:16;;;;;;;0.00;0.00;;;23.60;65.20;;;;;;3974225;29;20392;-69
2022/07/14 03:40:55;;;;;;;0.28;0.28;;;23.60;65.30;;;;;;3973721;29;20081;-68
2022/07/14 03:43:18;;;;;;;0.00;0.00;;;23.60;65.30;;;;;;3969987;29;20472;-69
2022/07/14 03:45:42;;;;;;;0.10;0.10;;;23.60;65.40;;;;;;3959039;29;20061;-69
2022/07/14 03:48:07;;;;;;;0.00;0.00;;;23.60;65.40;;;;;;3958652;29;20128;-69
2022/07/14 03:50:33;;;;;;;0.00;0.00;;;23.60;65.30;;;;;;3958974;29;20093;-69
2022/07/14 03:52:57;;;;;;;0.00;0.00;;;23.60;65.80;;;;;;3972563;29;20054;-69
2022/07/14 03:55:19;;;;;;;0.00;0.00;;;23.50;65.30;;;;;;3959702;29;20058;-69
2022/07/14 03:57:42;;;;;;;0.00;0.00;;;23.60;65.30;;;;;;3973279;29;20082;-68
2022/07/14 04:00:06;;;;;;;0.10;0.10;;;23.60;66.30;;;;;;3974123;29;20057;-70
2022/07/14 04:02:37;;;;;;;0.00;0.00;;;23.60;65.80;;;;;;3987384;29;20053;-69
2022/07/14 04:05:08;;;;;;;0.00;0.00;;;23.60;65.80;;;;;;3972867;29;20055;-68
2022/07/14 04:07:32;;;;;;;0.00;0.00;;;23.60;65.80;;;;;;3970494;29;20477;-69
2022/07/14 04:09:56;;;;;;;2.67;1.17;;;23.60;65.80;;;;;;3968260;29;20062;-70
2022/07/14 04:12:19;;;;;;;0.00;0.00;;;23.60;65.80;;;;;;3959987;29;20059;-69
2022/07/14 04:14:45;;;;;;;0.77;0.40;;;23.50;65.70;;;;;;3968137;29;20058;-69
2022/07/14 04:17:07;;;;;;;0.00;0.00;;;23.50;65.70;;;;;;3972808;29;20153;-69
2022/07/14 04:19:29;;;;;;;0.05;0.05;;;23.50;65.70;;;;;;3967357;29;20419;-69
2022/07/14 04:21:51;;;;;;;0.00;0.00;;;23.50;65.70;;;;;;3971575;29;20134;-69
2022/07/14 04:24:34;;;;;;;0.00;0.00;;;23.50;65.70;;;;;;3961063;29;20043;-69
2022/07/14 04:26:57;;;;;;;0.35;0.30;;;23.50;65.70;;;;;;3967244;29;20156;-69
2022/07/14 04:29:19;;;;;;;0.00;0.00;;;23.50;65.80;;;;;;3957876;29;20146;-70
2022/07/14 04:31:41;;;;;;;0.00;0.00;;;23.50;65.70;;;;;;3952148;29;20087;-69
2022/07/14 04:34:07;;;;;;;0.00;0.00;;;23.50;65.70;;;;;;3953518;29;20593;-70
2022/07/14 04:36:30;;;;;;;0.00;0.00;;;23.50;65.70;;;;;;3955127;29;20150;-68
2022/07/14 04:38:56;;;;;;;0.00;0.00;;;23.50;65.80;;;;;;3954600;29;20070;-69
2022/07/14 04:41:21;;;;;;;0.00;0.00;;;23.50;65.70;;;;;;3957387;29;20490;-65
2022/07/14 04:43:45;;;;;;;0.00;0.00;;;23.50;65.80;;;;;;3959983;29;20055;-65
2022/07/14 04:46:08;;;;;;;0.00;0.00;;;23.60;65.80;;;;;;3946143;29;20056;-65
2022/07/14 04:52:01;;;;;;;0.32;0.28;;;23.60;65.80;;;;;;3983179;29;20058;-64
2022/07/14 04:54:01;;;;;;;0.10;0.10;;;23.60;65.90;;;;;;3971373;29;20552;-63
2022/07/14 04:56:37;;;;;;;0.08;0.08;;;23.60;65.80;;;;;;3972433;29;20226;-64
2022/07/14 04:59:26;;;;;;;0.00;0.00;;;23.60;65.80;;;;;;3973013;29;20057;-64
2022/07/14 05:01:48;;;;;;;0.00;0.00;;;23.60;65.80;;;;;;3972387;29;20065;-63
2022/07/14 05:04:10;;;;;;;0.47;0.47;;;23.60;65.80;;;;;;3958170;29;20154;-63
2022/07/14 05:06:32;;;;;;;1.27;1.17;;;23.50;65.70;;;;;;3970880;29;20154;-64
2022/07/14 05:08:56;;;;;;;0.00;0.00;;;23.50;65.70;;;;;;3958070;29;20063;-64
2022/07/14 05:11:19;;;;;;;0.00;0.00;;;23.60;65.80;;;;;;3957317;29;20059;-64
2022/07/14 05:13:41;;;;;;;19.73;0.70;;;23.60;66.70;;;;;;3957842;29;20392;-64
2022/07/14 05:16:05;;;;;;;0.00;0.00;;;23.60;66.70;;;;;;3985038;29;20149;-63
2022/07/14 05:18:27;;;;;;;0.00;0.00;;;23.60;65.80;;;;;;3978683;29;20396;-63
2022/07/14 05:20:49;;;;;;;0.00;0.00;;;23.60;65.80;;;;;;3970845;29;20057;-64
2022/07/14 05:23:13;;;;;;;0.00;0.00;;;23.60;65.60;;;;;;3945565;29;20048;-64
2022/07/14 05:25:37;;;;;;;0.00;0.00;;;23.60;65.40;;;;;;3957047;29;20141;-64
2022/07/14 05:28:00;;;;;;;0.00;0.00;;;23.70;65.20;;;;;;3958192;29;20063;-64
2022/07/14 05:30:25;;;;;;;0.00;0.00;;;23.70;64.90;;;;;;3956924;29;20488;-65
2022/07/14 05:32:49;;;;;;;0.10;0.10;;;23.70;64.60;;;;;;3960185;29;20187;-65
2022/07/14 05:35:11;;;;;;;0.00;0.00;;;23.80;64.50;;;;;;3972169;29;20054;-68
2022/07/14 05:37:33;;;;;;;0.00;0.00;;;23.80;64.30;;;;;;3972477;29;20088;-65
2022/07/14 05:39:56;;;;;;;0.00;0.00;;;23.80;64.20;;;;;;3956846;29;20580;-65
2022/07/14 05:42:20;;;;;;;0.40;0.40;;;23.80;63.90;;;;;;3956990;29;20874;-64
2022/07/14 05:44:42;;;;;;;0.00;0.00;;;23.80;63.70;;;;;;3967471;29;20133;-65
2022/07/14 05:47:04;;;;;;;0.00;0.00;;;23.80;63.50;;;;;;3954214;29;20385;-64
2022/07/14 05:49:28;;;;;;;0.10;0.10;;;23.80;64.00;;;;;;3954798;29;20051;-66
2022/07/14 05:51:50;;;;;;;0.20;0.20;;;23.80;63.40;;;;;;3943663;29;20078;-66
2022/07/14 05:54:13;;;;;;;0.00;0.00;;;23.80;63.40;;;;;;3957162;29;20062;-67
2022/07/14 05:56:36;;;;;;;0.13;0.13;;;23.80;63.30;;;;;;3957097;29;20482;-66
2022/07/14 05:58:58;;;;;;;0.00;0.00;;;23.80;63.30;;;;;;3954425;29;20058;-67
2022/07/14 06:01:37;;;;;;;0.00;0.00;;;23.80;63.40;;;;;;3941908;30;20157;-67
2022/07/14 06:03:59;;;;;;;0.00;0.00;;;23.80;63.30;;;;;;3942491;30;20075;-67
2022/07/14 06:06:23;;;;;;;0.00;0.00;;;23.80;63.40;;;;;;3948958;29;20606;-67
2022/07/14 06:08:46;;;;;;;0.00;0.00;;;23.70;63.30;;;;;;3957406;29;20055;-67
2022/07/14 06:11:08;;;;;;;0.00;0.00;;;23.80;63.20;;;;;;3970621;29;20159;-67
2022/07/14 06:13:32;;;;;;;0.00;0.00;;;23.70;63.00;;;;;;3957453;29;20075;-67
2022/07/14 06:15:56;;;;;;;0.08;0.08;;;23.70;62.80;;;;;;3952229;29;20179;-67
2022/07/14 06:18:19;;;;;;;0.00;0.00;;;23.70;62.70;;;;;;3950176;29;20135;-67
2022/07/14 06:20:42;;;;;;;0.00;0.00;;;23.70;62.60;;;;;;3942279;30;20167;-67
2022/07/14 06:23:05;;;;;;;0.00;0.00;;;23.70;62.40;;;;;;3955048;30;20520;-67
2022/07/14 06:25:28;;;;;;;0.20;0.20;;;23.70;62.10;;;;;;3941936;30;20063;-67
2022/07/14 06:27:50;;;;;;;0.90;0.80;;;23.70;61.80;;;;;;3955781;30;20055;-66
2022/07/14 06:30:14;;;;;;;0.00;0.00;;;23.60;61.70;;;;;;3954651;30;20400;-65
2022/07/14 06:32:39;;;;;;;0.00;0.00;;;23.60;61.80;;;;;;3954526;30;20055;-66
2022/07/14 06:35:02;;;;;;;0.00;0.00;;;23.60;62.00;;;;;;3941955;30;20048;-66
2022/07/14 06:37:24;;;;;;;0.00;0.00;;;23.60;62.10;;;;;;3941781;30;20059;-67
2022/07/14 06:39:47;;;;;;;0.00;0.00;;;23.60;62.10;;;;;;3954131;30;20067;-66
2022/07/14 06:42:11;;;;;;;0.00;0.00;;;23.60;62.10;;;;;;3942818;29;20059;-67
2022/07/14 06:44:45;;;;;;;0.00;0.00;;;23.70;62.20;;;;;;3941916;29;20125;-67
2022/07/14 06:47:07;;;;;;;3.92;1.95;;;23.70;63.00;;;;;;3955064;29;20420;-67
2022/07/14 06:49:30;;;;;;;0.00;0.00;;;23.80;61.90;;;;;;3939952;29;20135;-67
2022/07/14 06:51:53;;;;;;;0.00;0.00;;;23.80;61.70;;;;;;3956036;29;20067;-67
2022/07/14 06:54:18;;;;;;;0.00;0.00;;;23.80;61.60;;;;;;3957880;29;20071;-67
2022/07/14 06:56:41;;;;;;;0.00;0.00;;;23.80;61.30;;;;;;3972759;29;20464;-66
2022/07/14 06:59:03;;;;;;;0.00;0.00;;;23.90;61.20;;;;;;3971278;29;20051;-67
2022/07/14 07:01:25;;;;;;;0.00;0.00;;;23.80;61.20;;;;;;3959514;29;20060;-68
2022/07/14 07:03:48;;;;;;;0.00;0.00;;;23.90;61.40;;;;;;3972429;29;20502;-67
2022/07/14 07:08:49;;;;;;;0.00;0.00;;;23.90;61.50;;;;;;3970960;29;20047;-67
2022/07/14 07:11:11;;;;;;;0.00;0.00;;;23.80;61.10;;;;;;3972902;29;20062;-66
2022/07/14 07:13:34;;;;;;;0.00;0.00;;;23.90;61.10;;;;;;3972746;29;20418;-67
2022/07/14 07:15:57;;;;;;;0.10;0.10;;;23.90;61.00;;;;;;3972672;29;20059;-67
2022/07/14 07:18:19;;;;;;;0.00;0.00;;;23.90;60.60;;;;;;3966282;29;20063;-67
2022/07/14 07:20:41;;;;;;;0.10;0.10;;;23.80;60.20;;;;;;3958071;30;20047;-66
2022/07/14 07:23:03;;;;;;;0.00;0.00;;;23.80;60.60;;;;;;3958289;30;20543;-67
2022/07/14 07:25:26;;;;;;;0.00;0.00;;;23.80;61.00;;;;;;3958243;30;20051;-68
2022/07/14 07:27:48;;;;;;;0.00;0.00;;;23.80;61.30;;;;;;3958403;30;20077;-67
2022/07/14 07:30:12;;;;;;;0.70;0.63;;;23.80;61.40;;;;;;3967931;29;20403;-66
2022/07/14 07:32:34;;;;;;;0.00;0.00;;;23.80;61.40;;;;;;3967584;29;20047;-67
2022/07/14 07:34:56;;;;;;;0.00;0.00;;;23.80;61.20;;;;;;3957784;29;20055;-69
2022/07/14 07:37:19;;;;;;;0.00;0.00;;;23.80;61.00;;;;;;3958104;29;20153;-68
2022/07/14 07:39:49;;;;;;;0.00;0.00;;;23.80;60.70;;;;;;3957688;29;20423;-68
2022/07/14 07:42:12;;;;;;;0.00;0.00;;;23.80;60.90;;;;;;3957679;29;20491;-67
2022/07/14 07:44:34;;;;;;;0.00;0.00;;;23.80;61.10;;;;;;3957900;29;20050;-67
2022/07/14 07:46:58;;;;;;;0.00;0.00;;;23.80;61.10;;;;;;3957631;29;20126;-67
2022/07/14 07:49:21;;;;;;;0.00;0.00;;;23.90;61.10;;;;;;3958226;29;20051;-67
2022/07/14 07:51:43;;;;;;;0.00;0.00;;;23.90;60.90;;;;;;3957390;29;20059;-66
2022/07/14 07:54:05;;;;;;;0.00;0.00;;;23.90;60.00;;;;;;3957702;29;20043;-67
2022/07/14 07:56:27;;;;;;;0.10;0.10;;;23.90;59.90;;;;;;3957290;29;20494;-67
2022/07/14 07:58:49;;;;;;;0.00;0.00;;;23.90;60.20;;;;;;3958589;29;20059;-67
2022/07/14 08:01:11;;;;;;;0.00;0.00;;;23.90;60.10;;;;;;3943755;29;20071;-67
2022/07/14 08:03:36;;;;;;;0.00;0.00;;;23.90;60.30;;;;;;3957768;29;20112;-67
2022/07/14 08:06:05;;;;;;;0.00;0.00;;;24.00;60.20;;;;;;3943481;29;20075;-67
2022/07/14 08:08:47;;;;;;;0.00;0.00;;;24.00;60.10;;;;;;3958287;29;20500;-66
2022/07/14 08:11:09;;;;;;;0.00;0.00;;;24.00;59.80;;;;;;3957360;29;20067;-66
2022/07/14 08:13:31;;;;;;;0.00;0.00;;;24.10;59.60;;;;;;3957640;29;20442;-67
2022/07/14 08:15:54;;;;;;;0.00;0.00;;;24.10;59.50;;;;;;3957146;29;20142;-66
2022/07/14 08:18:16;;;;;;;0.00;0.00;;;24.10;59.40;;;;;;3957380;29;20062;-67
2022/07/14 08:20:40;;;;;;;0.00;0.00;;;24.10;59.00;;;;;;3961286;29;20462;-67
2022/07/14 08:23:03;;;;;;;0.00;0.00;;;24.10;58.80;;;;;;3968654;29;20435;-67
2022/07/14 08:25:25;;;;;;;0.00;0.00;;;24.10;59.00;;;;;;3942966;29;20067;-66
2022/07/14 08:27:47;;;;;;;0.00;0.00;;;24.20;59.00;;;;;;3968505;29;20422;-66
2022/07/14 08:30:09;;;;;;;0.00;0.00;;;24.20;59.00;;;;;;3963338;29;20588;-66
2022/07/14 08:32:40;;;;;;;0.00;0.00;;;24.20;59.00;;;;;;3972329;29;20228;-66
2022/07/14 08:35:03;;;;;;;0.00;0.00;;;24.20;58.70;;;;;;3971854;29;20089;-66
2022/07/14 08:37:27;;;;;;;0.00;0.00;;;24.20;58.20;;;;;;3971276;29;20054;-66
2022/07/14 08:39:55;;;;;;;0.00;0.00;;;24.20;59.20;;;;;;3962570;29;20556;-67
2022/07/14 08:42:17;;;;;;;0.00;0.00;;;24.20;58.40;;;;;;3971708;29;20065;-66
2022/07/14 08:44:40;;;;;;;0.00;0.00;;;24.30;58.30;;;;;;3960917;29;20055;-66
2022/07/14 08:47:03;;;;;;;0.00;0.00;;;24.30;58.10;;;;;;3943689;29;20130;-67
2022/07/14 08:49:25;;;;;;;1.02;0.88;;;24.30;58.10;;;;;;3959467;29;20506;-66
2022/07/14 08:52:07;;;;;;;0.00;0.00;;;24.30;58.40;;;;;;3960795;29;20143;-65
2022/07/14 08:54:32;;;;;;;0.00;0.00;;;24.30;58.40;;;;;;3955931;30;20492;-65
2022/07/14 08:56:54;;;;;;;0.00;0.00;;;24.30;58.40;;;;;;3955542;30;20092;-65
2022/07/14 08:59:17;;;;;;;0.00;0.00;;;24.30;58.40;;;;;;3956175;30;20131;-65
2022/07/14 09:01:39;;;;;;;0.00;0.00;;;24.30;58.40;;;;;;3968056;29;20074;-67
2022/07/14 09:04:02;;;;;;;0.00;0.00;;;24.30;58.40;;;;;;3955755;29;20055;-67
2022/07/14 09:06:50;;;;;;;0.00;0.00;;;24.30;58.30;;;;;;3963448;29;20055;-67
2022/07/14 09:09:16;;;;;;;0.28;0.28;;;24.30;58.40;;;;;;3956693;29;20053;-67
2022/07/14 09:11:52;;;;;;;0.00;0.00;;;24.30;58.40;;;;;;3947570;29;20063;-67
2022/07/14 09:14:19;;;;;;;0.55;0.55;;;24.30;58.40;;;;;;3955444;29;20051;-67
2022/07/14 09:16:41;;;;;;;0.00;0.00;;;24.30;59.00;;;;;;3956054;29;20059;-66
2022/07/14 09:19:09;;;;;;;0.00;0.00;;;24.30;58.20;;;;;;3955107;30;20055;-67
2022/07/14 09:21:31;;;;;;;0.00;0.00;;;24.30;58.20;;;;;;3955750;30;20059;-67
2022/07/14 09:23:57;;;;;;;0.00;0.00;;;24.30;58.30;;;;;;3955591;30;20427;-68
2022/07/14 09:26:21;;;;;;;0.00;0.00;;;24.30;58.30;;;;;;3951888;29;20435;-67
2022/07/14 09:28:47;;;;;;;0.00;0.00;;;24.30;58.40;;;;;;3970190;29;20046;-66
2022/07/14 09:31:22;;;;;;;0.40;0.40;;;24.30;58.50;;;;;;3970180;29;20103;-67
2022/07/14 09:33:44;;;;;;;0.00;0.00;;;24.30;58.30;;;;;;3959656;29;20087;-67
2022/07/14 09:36:19;;;;;;;0.00;0.00;;;24.30;58.10;;;;;;3941408;30;20055;-68
2022/07/14 09:38:46;;;;;;;0.00;0.00;;;24.30;57.80;;;;;;3941317;30;20165;-68
2022/07/14 09:41:09;;;;;;;0.00;0.00;;;24.30;57.70;;;;;;3954624;30;20047;-68
2022/07/14 09:43:33;;;;;;;0.03;0.03;;;24.30;57.60;;;;;;3947946;30;20051;-68
2022/07/14 09:45:58;;;;;;;0.00;0.00;;;24.40;58.30;;;;;;3954364;29;20075;-67
2022/07/14 09:48:21;;;;;;;0.00;0.00;;;24.40;57.70;;;;;;3956322;29;20077;-68
2022/07/14 09:50:48;;;;;;;0.10;0.10;;;24.40;57.60;;;;;;3969260;29;20059;-66
2022/07/14 09:53:16;;;;;;;0.00;0.00;;;24.40;57.90;;;;;;3941304;30;20047;-68
2022/07/14 09:55:41;;;;;;;0.00;0.00;;;24.40;57.80;;;;;;3966044;29;20058;-68
2022/07/14 09:58:04;;;;;;;0.00;0.00;;;24.40;57.80;;;;;;3968575;29;20503;-67
2022/07/14 10:00:27;;;;;;;0.00;0.00;;;24.40;57.60;;;;;;3969661;29;20113;-68
2022/07/14 10:02:52;;;;;;;0.05;0.05;;;24.40;57.80;;;;;;3969413;29;20138;-67
2022/07/14 10:05:15;;;;;;;0.10;0.10;;;24.40;57.80;;;;;;3969363;29;20089;-68
2022/07/14 10:07:41;;;;;;;0.00;0.00;;;24.40;57.90;;;;;;3970146;29;20776;-67
2022/07/14 10:10:06;;;;;;;0.00;0.00;;;24.40;57.90;;;;;;3967535;29;20061;-67
2022/07/14 10:12:30;;;;;;;0.38;0.38;;;24.40;58.10;;;;;;3955250;29;20140;-69
2022/07/14 10:14:53;;;;;;;0.15;0.15;;;24.40;57.70;;;;;;3968829;29;20063;-68
2022/07/14 10:17:16;;;;;;;0.00;0.00;;;24.40;57.70;;;;;;3959896;29;20428;-67
2022/07/14 10:19:41;;;;;;;0.00;0.00;;;24.40;57.70;;;;;;3954438;29;20492;-68
2022/07/14 10:22:05;;;;;;;0.32;0.32;;;24.40;58.40;;;;;;3954700;30;20044;-67
2022/07/14 10:24:29;;;;;;;0.00;0.00;;;24.50;57.60;;;;;;3955472;30;20104;-67
2022/07/14 10:26:52;;;;;;;0.00;0.00;;;24.50;57.90;;;;;;3953699;30;20062;-67
2022/07/14 10:29:15;;;;;;;0.00;0.00;;;24.50;57.60;;;;;;3953598;29;20124;-66
2022/07/14 10:31:52;;;;;;;0.00;0.00;;;24.50;57.40;;;;;;3944781;30;20059;-66
2022/07/14 10:34:25;;;;;;;1.98;1.02;;;24.50;57.20;;;;;;3957628;30;20059;-66
2022/07/14 10:36:58;;;;;;;0.20;0.20;;;24.50;57.70;;;;;;3960460;29;20142;-65
2022/07/14 10:39:29;;;;;;;0.00;0.00;;;24.50;57.60;;;;;;3961408;29;20077;-66
2022/07/14 10:42:01;;;;;;;0.00;0.00;;;24.50;57.60;;;;;;3953180;29;20108;-66
2022/07/14 10:44:26;;;;;;;0.20;0.20;;;24.50;57.00;;;;;;3957527;30;20142;-65
2022/07/14 10:46:51;;;;;;;0.00;0.00;;;24.50;57.60;;;;;;3942920;30;20474;-65
2022/07/14 10:49:17;;;;;;;0.00;0.00;;;24.60;57.40;;;;;;3958079;30;20059;-65
2022/07/14 10:51:47;;;;;;;0.00;0.00;;;24.60;57.30;;;;;;3958207;30;20102;-66
2022/07/14 10:54:13;;;;;;;0.00;0.00;;;24.60;57.30;;;;;;3957483;30;20146;-64
2022/07/14 10:57:11;;;;;;;0.10;0.10;;;24.70;57.30;;;;;;3954386;29;20528;-65
2022/07/14 10:59:35;;;;;;;0.00;0.00;;;24.60;57.00;;;;;;3956124;30;20051;-67
2022/07/14 11:02:28;;;;;;;0.00;0.00;;;24.60;57.00;;;;;;3958354;30;20469;-67
2022/07/14 11:05:14;;;;;;;0.00;0.00;;;24.60;57.20;;;;;;3956632;30;20134;-66
2022/07/14 11:07:38;;;;;;;0.00;0.00;;;24.60;57.30;;;;;;3944200;30;20059;-67
2022/07/14 11:10:04;;;;;;;0.00;0.00;;;24.60;57.20;;;;;;3956748;29;20066;-66
2022/07/14 11:12:27;;;;;;;0.10;0.10;;;24.60;57.20;;;;;;3957246;29;20081;-66
2022/07/14 11:14:50;;;;;;;0.00;0.00;;;24.50;57.20;;;;;;3944122;29;20060;-67
2022/07/14 11:17:39;;;;;;;0.00;0.00;;;24.50;57.40;;;;;;3970951;29;20465;-67
2022/07/14 11:20:01;;;;;;;0.00;0.00;;;24.50;57.50;;;;;;3954604;29;20146;-63
2022/07/14 11:22:25;;;;;;;0.00;0.00;;;24.50;57.60;;;;;;3968392;29;20090;-64
2022/07/14 11:24:48;;;;;;;29.42;0.85;;;24.50;57.60;;;;;;3969527;29;20133;-62
2022/07/14 11:27:27;;;;;;;0.00;0.00;;;24.50;57.60;;;;;;3963932;29;20059;-63
2022/07/14 11:29:50;;;;;;;0.00;0.00;;;24.50;57.70;;;;;;3971768;29;20055;-64
2022/07/14 11:32:31;;;;;;;0.00;0.00;;;24.50;57.70;;;;;;3958029;29;20082;-66
2022/07/14 11:37:33;;;;;;;0.00;0.00;;;24.50;57.60;;;;;;3969947;29;20062;-63
2022/07/14 11:40:43;;;;;;;0.03;0.03;;;24.50;57.50;;;;;;3972149;29;20058;-62
2022/07/14 11:43:38;;;;;;;0.00;0.00;;;24.50;57.40;;;;;;3968716;29;20111;-67
2022/07/14 11:46:03;;;;;;;0.00;0.00;;;24.50;57.40;;;;;;3971744;29;20513;-64
2022/07/14 11:48:30;;;;;;;0.00;0.00;;;24.60;57.30;;;;;;3957873;29;20152;-65
2022/07/14 11:50:52;;;;;;;0.00;0.00;;;24.50;57.20;;;;;;3958586;29;20116;-65
2022/07/14 11:53:16;;;;;;;0.00;0.00;;;24.60;57.00;;;;;;3958636;29;20059;-64
2022/07/14 11:55:38;;;;;;;0.00;0.00;;;24.60;57.20;;;;;;3972259;29;20057;-64
2022/07/14 11:58:01;;;;;;;0.00;0.00;;;24.60;56.90;;;;;;3971089;29;20058;-64
2022/07/14 12:00:25;;;;;;;0.00;0.00;;;24.60;57.00;;;;;;3972104;29;20127;-66
2022/07/14 12:02:51;;;;;;;0.00;0.00;;;24.70;57.10;;;;;;3972230;29;20448;-64
2022/07/14 12:05:14;;;;;;;0.00;0.00;;;24.70;57.70;;;;;;3962727;29;20078;-66
2022/07/14 12:07:50;;;;;;;0.00;0.00;;;24.70;57.00;;;;;;3958889;29;20514;-66
2022/07/14 12:10:15;;;;;;;0.00;0.00;;;24.70;57.00;;;;;;3942961;30;20059;-69
2022/07/14 12:12:41;;;;;;;0.00;0.00;;;24.70;57.00;;;;;;3956254;30;20055;-68
2022/07/14 12:15:04;;;;;;;1.35;1.25;;;24.80;57.00;;;;;;3967589;29;20062;-64
2022/07/14 12:17:27;;;;;;;0.20;0.20;;;24.80;57.40;;;;;;3957810;29;20088;-64
2022/07/14 12:19:50;;;;;;;0.00;0.00;;;24.80;56.90;;;;;;3949361;29;20143;-64
2022/07/14 12:22:15;;;;;;;0.00;0.00;;;24.80;57.00;;;;;;3957834;29;20066;-62
2022/07/14 12:24:38;;;;;;;0.22;0.22;;;24.80;57.00;;;;;;3966130;29;20138;-63
2022/07/14 12:27:03;;;;;;;0.00;0.00;;;24.80;57.00;;;;;;3949831;29;20128;-65
2022/07/14 12:29:25;;;;;;;0.00;0.00;;;24.80;57.00;;;;;;3955771;29;20043;-64
2022/07/14 12:31:48;;;;;;;0.00;0.00;;;24.80;57.00;;;;;;3942579;29;20055;-65
2022/07/14 12:34:15;;;;;;;0.00;0.00;;;24.70;57.00;;;;;;3970618;29;20055;-65
2022/07/14 12:36:38;;;;;;;0.00;0.00;;;24.70;57.00;;;;;;3971273;29;20468;-67
2022/07/14 12:39:05;;;;;;;0.00;0.00;;;24.70;57.00;;;;;;3942175;29;20128;-62
2022/07/14 12:41:28;;;;;;;0.00;0.00;;;24.70;57.00;;;;;;3942087;29;20549;-63
2022/07/14 12:43:51;;;;;;;0.00;0.00;;;24.70;57.00;;;;;;3955560;29;20212;-65
2022/07/14 12:46:17;;;;;;;0.00;0.00;;;24.70;57.10;;;;;;3927983;30;20052;-64
2022/07/14 12:48:58;;;;;;;0.00;0.00;;;24.70;57.00;;;;;;3950527;29;20113;-66